Time;durP1;ratioP1;P1;durP2;ratioP2;P2;SDS_P1;SDS_P2;PMS_P1;PMS_P2;Temp;Humidity;BMP_temperature;BMP_pressure;BME280_temperature;BME280_humidity;BME280_pressure;Samples;Min_cycle;Max_cycle;Signal;HPM_P1;HPM_P2
2023/04/12 00:03:09;;;;;;;12.67;6.87;;;8.50;99.90;;;;;;10241484;29;20220;-77
2023/04/12 00:08:50;;;;;;;7.97;5.30;;;8.50;99.90;;;;;;10271635;29;20267;-77
2023/04/12 00:14:11;;;;;;;6.30;4.30;;;8.50;99.90;;;;;;10280686;29;20200;-78
2023/04/12 00:19:33;;;;;;;8.63;4.47;;;8.50;99.90;;;;;;10279932;29;20201;-77
2023/04/12 00:24:53;;;;;;;10.93;5.77;;;8.40;99.90;;;;;;10280467;29;20299;-78
2023/04/12 00:30:15;;;;;;;8.97;5.33;;;8.40;99.90;;;;;;10292771;28;20258;-78
2023/04/12 00:35:36;;;;;;;9.57;4.40;;;8.40;99.90;;;;;;10261864;29;20241;-77
2023/04/12 00:40:57;;;;;;;6.27;4.00;;;8.40;99.90;;;;;;10279300;28;20197;-76
2023/04/12 00:46:19;;;;;;;6.63;4.40;;;8.40;99.90;;;;;;10291500;28;20231;-77
2023/04/12 00:51:41;;;;;;;10.50;5.93;;;8.40;99.90;;;;;;10262540;29;20255;-77
2023/04/12 00:57:03;;;;;;;9.97;6.07;;;8.40;99.90;;;;;;10277608;28;20205;-77
2023/04/12 01:02:25;;;;;;;10.83;5.60;;;8.40;99.90;;;;;;10305475;28;20247;-77
2023/04/12 01:07:53;;;;;;;9.90;5.47;;;8.50;99.90;;;;;;10260525;29;20452;-77
2023/04/12 01:13:41;;;;;;;7.23;4.73;;;8.40;99.90;;;;;;10263725;29;20235;-76
2023/04/12 01:19:16;;;;;;;9.33;5.40;;;8.40;99.90;;;;;;10262187;28;20481;-77
2023/04/12 01:25:22;;;;;;;8.07;5.20;;;8.40;99.90;;;;;;10278135;29;20228;-80
2023/04/12 01:30:46;;;;;;;6.90;4.60;;;8.40;99.90;;;;;;10252965;28;20236;-77
2023/04/12 01:36:15;;;;;;;7.23;4.47;;;8.40;99.90;;;;;;10262440;28;20279;-77
2023/04/12 01:41:41;;;;;;;6.50;4.53;;;8.40;99.90;;;;;;10238062;29;20263;-79
2023/04/12 01:47:02;;;;;;;9.03;6.43;;;8.30;99.90;;;;;;10267342;28;20208;-78
2023/04/12 01:52:25;;;;;;;8.60;6.00;;;8.40;99.90;;;;;;10253434;29;20191;-78
2023/04/12 01:57:49;;;;;;;8.50;4.87;;;8.30;99.90;;;;;;10288336;28;20209;-79
2023/04/12 02:03:11;;;;;;;7.53;5.33;;;8.30;99.90;;;;;;10246260;29;20278;-77
2023/04/12 02:08:32;;;;;;;9.87;5.27;;;8.30;99.90;;;;;;10258216;29;20511;-78
2023/04/12 02:13:53;;;;;;;6.47;4.80;;;8.30;99.90;;;;;;10288667;28;20506;-77
2023/04/12 02:19:15;;;;;;;6.27;5.03;;;8.20;99.90;;;;;;10288162;28;20209;-77
2023/04/12 02:24:36;;;;;;;7.90;4.80;;;8.20;99.90;;;;;;10275247;29;20226;-77
2023/04/12 02:29:58;;;;;;;5.60;4.63;;;8.10;99.90;;;;;;10275378;29;20349;-77
2023/04/12 02:35:20;;;;;;;5.97;4.53;;;8.10;99.90;;;;;;10300692;28;20559;-77
2023/04/12 02:40:46;;;;;;;4.53;3.87;;;8.10;99.90;;;;;;10290513;28;20201;-77
2023/04/12 02:46:14;;;;;;;4.30;3.90;;;8.10;99.90;;;;;;10261985;29;20231;-77
2023/04/12 02:51:41;;;;;;;5.47;3.57;;;8.20;99.90;;;;;;10224181;29;20245;-80
2023/04/12 02:57:03;;;;;;;5.37;3.60;;;8.10;99.90;;;;;;10227948;29;20213;-80
2023/04/12 03:02:32;;;;;;;5.60;3.20;;;8.10;99.90;;;;;;10264386;29;20240;-78
2023/04/12 03:07:56;;;;;;;3.50;3.20;;;8.10;99.90;;;;;;10268449;28;20276;-77
2023/04/12 03:13:38;;;;;;;4.33;2.93;;;8.10;99.90;;;;;;10273208;29;20694;-77
2023/04/12 03:18:59;;;;;;;4.57;3.30;;;8.10;99.90;;;;;;10275145;28;20236;-77
2023/04/12 03:24:22;;;;;;;4.07;3.13;;;8.20;99.90;;;;;;10287846;28;20341;-78
2023/04/12 03:29:44;;;;;;;4.70;3.53;;;8.10;99.90;;;;;;10273267;29;20523;-77
2023/04/12 03:35:06;;;;;;;11.20;8.33;;;8.10;99.90;;;;;;10258623;29;20241;-78
2023/04/12 03:40:28;;;;;;;11.57;8.07;;;8.10;99.90;;;;;;10259377;29;20257;-78
2023/04/12 03:45:51;;;;;;;9.73;4.57;;;8.10;99.90;;;;;;10271604;29;20271;-79
2023/04/12 03:51:14;;;;;;;3.90;3.13;;;8.10;99.90;;;;;;10246778;28;20212;-78
2023/04/12 03:56:38;;;;;;;3.57;2.43;;;8.10;99.90;;;;;;10265735;28;20212;-78
2023/04/12 04:02:05;;;;;;;3.57;2.83;;;8.10;99.90;;;;;;10259212;29;20219;-77
2023/04/12 04:07:30;;;;;;;4.00;2.50;;;8.00;99.90;;;;;;10259931;29;20557;-81
2023/04/12 04:12:53;;;;;;;3.67;3.17;;;8.10;99.90;;;;;;10274142;28;20244;-78
2023/04/12 04:18:14;;;;;;;6.50;4.23;;;8.00;99.90;;;;;;10258275;29;20212;-78
2023/04/12 04:23:38;;;;;;;15.30;7.67;;;8.10;99.90;;;;;;10271452;28;20246;-78
2023/04/12 04:29:02;;;;;;;13.47;8.07;;;8.10;99.90;;;;;;10302035;28;20249;-78
2023/04/12 04:34:28;;;;;;;8.20;5.10;;;8.10;99.90;;;;;;10278449;28;20231;-77
2023/04/12 04:40:06;;;;;;;6.37;5.03;;;8.10;99.90;;;;;;10294530;28;20239;-77
2023/04/12 04:45:31;;;;;;;13.33;7.70;;;8.10;99.90;;;;;;10291550;28;20237;-77
2023/04/12 04:50:53;;;;;;;13.73;7.20;;;8.20;99.90;;;;;;10278737;28;20192;-78
2023/04/12 04:56:15;;;;;;;10.77;6.50;;;8.20;99.90;;;;;;10279216;28;20203;-78
2023/04/12 05:01:40;;;;;;;16.67;9.10;;;8.10;99.90;;;;;;10292186;28;20217;-78
2023/04/12 05:07:02;;;;;;;8.77;6.33;;;8.10;99.90;;;;;;10276780;29;20202;-79
2023/04/12 05:12:23;;;;;;;6.47;4.90;;;8.10;99.90;;;;;;10277767;29;20212;-77
2023/04/12 05:17:48;;;;;;;13.03;7.63;;;8.10;99.90;;;;;;10291288;28;20205;-78
2023/04/12 05:23:10;;;;;;;11.27;7.80;;;8.10;99.90;;;;;;10292432;28;20233;-77
2023/04/12 05:28:31;;;;;;;13.23;8.07;;;8.20;99.90;;;;;;10291124;28;20204;-79
2023/04/12 05:33:56;;;;;;;9.97;6.57;;;8.10;99.90;;;;;;10273085;29;20212;-77
2023/04/12 05:39:22;;;;;;;7.17;5.30;;;8.10;99.90;;;;;;10262458;28;20244;-80
2023/04/12 05:44:47;;;;;;;7.30;5.40;;;8.10;99.90;;;;;;10261643;29;20470;-78
2023/04/12 05:50:09;;;;;;;7.27;5.87;;;8.20;99.90;;;;;;10289220;28;20212;-78
2023/04/12 05:55:31;;;;;;;21.53;14.90;;;8.20;99.90;;;;;;10223165;29;20205;-78
2023/04/12 06:00:54;;;;;;;45.70;28.93;;;8.10;99.90;;;;;;10244523;29;20394;-79
2023/04/12 06:06:16;;;;;;;38.37;28.30;;;8.10;99.90;;;;;;10293591;28;20305;-78
2023/04/12 06:11:41;;;;;;;55.17;32.73;;;8.20;99.90;;;;;;10274472;29;20218;-79
2023/04/12 06:17:02;;;;;;;56.77;34.43;;;8.10;99.90;;;;;;10262711;29;20194;-81
2023/04/12 06:22:23;;;;;;;184.30;88.37;;;8.20;99.90;;;;;;10287735;28;20232;-77
2023/04/12 06:27:45;;;;;;;98.33;55.83;;;8.30;99.90;;;;;;10288468;28;20214;-83
2023/04/12 06:33:08;;;;;;;25.93;16.50;;;8.30;99.90;;;;;;10274053;29;20215;-76
2023/04/12 06:38:30;;;;;;;11.60;8.73;;;8.30;99.90;;;;;;10288364;28;20523;-78
2023/04/12 06:43:51;;;;;;;145.03;70.47;;;8.20;99.90;;;;;;10287270;28;20863;-77
2023/04/12 06:49:12;;;;;;;67.10;35.77;;;8.20;99.90;;;;;;10275315;29;20256;-82
2023/04/12 06:54:37;;;;;;;30.20;19.37;;;8.30;99.90;;;;;;10272944;28;20201;-78
2023/04/12 06:59:58;;;;;;;29.27;18.33;;;8.40;99.90;;;;;;10275052;29;20198;-78
2023/04/12 07:05:19;;;;;;;23.17;16.73;;;8.50;99.90;;;;;;10272371;29;20414;-79
2023/04/12 07:10:40;;;;;;;24.40;14.90;;;8.50;99.90;;;;;;10274005;29;20248;-77
2023/04/12 07:16:02;;;;;;;26.60;18.50;;;8.50;99.90;;;;;;10257353;29;20216;-82
2023/04/12 07:21:23;;;;;;;20.00;15.03;;;8.60;99.90;;;;;;10247605;28;20235;-77
2023/04/12 07:26:44;;;;;;;19.43;13.57;;;8.70;99.90;;;;;;10273509;29;20236;-78
2023/04/12 07:32:08;;;;;;;20.47;14.03;;;8.70;99.90;;;;;;10267300;29;20214;-76
2023/04/12 07:37:28;;;;;;;18.37;13.17;;;8.80;99.90;;;;;;10268136;29;20280;-77
2023/04/12 07:42:50;;;;;;;14.63;10.80;;;8.70;99.90;;;;;;10251379;28;20472;-77
2023/04/12 07:48:11;;;;;;;13.60;10.37;;;8.80;99.90;;;;;;10245628;28;20232;-81
2023/04/12 07:53:32;;;;;;;14.27;10.07;;;8.80;99.90;;;;;;10235735;29;20506;-80
2023/04/12 07:58:53;;;;;;;11.87;8.63;;;8.90;99.90;;;;;;10263990;29;20209;-78
2023/04/12 08:04:14;;;;;;;12.00;8.40;;;8.90;99.90;;;;;;10239316;28;20290;-82
2023/04/12 08:09:35;;;;;;;12.13;8.80;;;9.00;99.90;;;;;;10275425;29;20286;-78
2023/04/12 08:14:57;;;;;;;9.90;7.17;;;9.10;99.90;;;;;;10271393;28;20721;-78
2023/04/12 08:20:18;;;;;;;13.13;8.23;;;9.10;99.90;;;;;;10248868;28;20205;-78
2023/04/12 08:25:40;;;;;;;14.97;9.10;;;9.20;99.90;;;;;;10273113;29;20455;-81
2023/04/12 08:31:02;;;;;;;13.50;8.47;;;9.20;99.90;;;;;;10287883;28;20416;-83
2023/04/12 08:36:23;;;;;;;11.90;8.00;;;9.20;99.90;;;;;;10269084;28;20320;-77
2023/04/12 08:41:45;;;;;;;10.53;6.77;;;9.30;99.90;;;;;;10290510;28;20209;-85
2023/04/12 08:47:09;;;;;;;8.77;7.10;;;9.20;99.90;;;;;;10237481;29;20251;-80
2023/04/12 08:52:34;;;;;;;8.40;6.30;;;9.40;99.90;;;;;;10250585;29;20236;-79
2023/04/12 08:57:58;;;;;;;11.37;6.10;;;9.50;99.90;;;;;;10251599;29;20494;-81
2023/04/12 09:03:20;;;;;;;12.97;6.90;;;9.60;99.90;;;;;;10285577;28;20247;-77
2023/04/12 09:08:54;;;;;;;9.93;7.70;;;9.70;99.90;;;;;;10274049;29;20212;-80
2023/04/12 09:14:25;;;;;;;11.07;5.83;;;9.80;99.90;;;;;;10271394;28;20213;-79
2023/04/12 09:19:46;;;;;;;7.97;5.80;;;9.80;99.90;;;;;;10271128;29;20313;-81
2023/04/12 09:25:07;;;;;;;5.97;4.80;;;9.90;99.90;;;;;;10253831;29;20237;-80
2023/04/12 09:30:28;;;;;;;9.13;6.23;;;10.00;99.90;;;;;;10272235;29;20209;-78
2023/04/12 09:35:49;;;;;;;6.77;5.63;;;10.00;99.90;;;;;;10287330;28;20256;-78
2023/04/12 09:41:18;;;;;;;8.87;6.80;;;10.10;99.90;;;;;;10271437;29;20212;-79
2023/04/12 09:46:53;;;;;;;22.90;12.20;;;10.20;99.90;;;;;;10271546;29;20233;-76
2023/04/12 09:52:15;;;;;;;13.77;9.83;;;10.10;99.90;;;;;;10287394;28;20213;-76
2023/04/12 09:57:45;;;;;;;14.23;9.97;;;10.00;99.90;;;;;;10270282;29;20214;-78
2023/04/12 12:16:34;;;;;;;22.60;18.60;;;10.80;99.90;;;;;;10593301;27;20565;-82
2023/04/12 12:22:20;;;;;;;24.50;17.23;;;10.90;99.90;;;;;;10521440;28;20227;-83
2023/04/12 12:27:46;;;;;;;23.60;17.00;;;10.70;99.90;;;;;;10560548;28;20228;-83
2023/04/12 12:33:08;;;;;;;21.00;16.00;;;10.70;99.90;;;;;;10506727;28;20276;-78
2023/04/12 12:38:39;;;;;;;24.00;16.90;;;10.60;99.90;;;;;;10510294;28;20266;-78
2023/04/12 12:44:01;;;;;;;25.23;16.90;;;10.50;99.90;;;;;;10491794;28;20211;-78
2023/04/12 12:49:22;;;;;;;35.13;21.83;;;10.40;99.90;;;;;;10555303;28;20217;-79
2023/04/12 12:54:43;;;;;;;28.30;17.07;;;10.30;99.90;;;;;;10537174;28;20224;-77
2023/04/12 13:00:05;;;;;;;16.43;11.97;;;10.30;99.90;;;;;;10524319;28;20201;-78
2023/04/12 13:05:26;;;;;;;48.07;31.77;;;10.20;99.90;;;;;;10509385;28;20210;-78
2023/04/12 13:10:47;;;;;;;20.90;15.07;;;10.10;99.90;;;;;;10547817;28;20192;-80
2023/04/12 13:16:09;;;;;;;24.10;17.33;;;10.00;99.90;;;;;;10568515;28;20247;-80
2023/04/12 13:21:31;;;;;;;20.80;14.13;;;9.90;99.90;;;;;;10545301;28;20243;-78
2023/04/12 13:26:52;;;;;;;21.47;14.90;;;9.90;99.90;;;;;;10508128;28;20212;-79
2023/04/12 13:32:14;;;;;;;17.63;13.20;;;9.90;99.90;;;;;;10517433;28;20244;-78
2023/04/12 13:37:35;;;;;;;19.00;13.97;;;9.90;99.90;;;;;;10517872;28;20205;-78
2023/04/12 13:42:56;;;;;;;19.53;14.03;;;10.00;99.90;;;;;;10516937;28;20275;-78
2023/04/12 13:48:18;;;;;;;25.07;15.63;;;10.30;99.90;;;;;;10544484;28;20206;-78
2023/04/12 13:53:39;;;;;;;23.47;15.07;;;10.60;99.90;;;;;;10537989;28;20257;-78
2023/04/12 13:59:02;;;;;;;27.77;14.90;;;10.80;99.90;;;;;;10518196;28;20190;-77
2023/04/12 14:04:27;;;;;;;16.60;11.77;;;10.60;99.90;;;;;;10516339;28;20489;-76
2023/04/12 14:09:48;;;;;;;17.10;12.20;;;10.40;99.90;;;;;;10514811;28;20252;-76
2023/04/12 14:15:10;;;;;;;21.23;13.43;;;10.40;99.90;;;;;;10517657;28;20249;-77
2023/04/12 14:20:31;;;;;;;14.83;12.13;;;10.40;99.90;;;;;;10517493;28;20205;-79
2023/04/12 14:25:53;;;;;;;15.33;12.17;;;10.40;99.90;;;;;;10509095;28;20201;-76
2023/04/12 14:31:15;;;;;;;17.63;12.67;;;10.60;99.90;;;;;;10513918;28;20206;-77
2023/04/12 14:36:36;;;;;;;15.83;11.87;;;10.60;99.90;;;;;;10524288;28;20480;-77
2023/04/12 14:41:58;;;;;;;18.07;13.70;;;10.60;99.90;;;;;;10496653;28;20197;-76
2023/04/12 14:47:19;;;;;;;18.33;13.43;;;10.60;99.90;;;;;;10522529;28;20212;-76
2023/04/12 14:52:40;;;;;;;16.13;12.17;;;10.70;99.90;;;;;;10514730;28;20229;-76
2023/04/12 14:58:01;;;;;;;15.83;11.90;;;10.80;99.90;;;;;;10516910;28;20194;-77
2023/04/12 15:03:25;;;;;;;20.07;13.57;;;10.70;99.90;;;;;;10512124;28;20301;-81
2023/04/12 15:08:48;;;;;;;18.30;12.13;;;10.80;99.90;;;;;;10519242;28;20190;-80
2023/04/12 15:14:09;;;;;;;18.73;12.83;;;10.70;99.90;;;;;;10519728;28;20237;-76
2023/04/12 15:19:30;;;;;;;17.63;11.13;;;10.80;99.90;;;;;;10517235;28;20213;-77
2023/04/12 15:24:52;;;;;;;17.37;10.90;;;10.80;99.90;;;;;;10519097;28;20260;-77
2023/04/12 15:30:14;;;;;;;14.77;11.07;;;10.80;99.90;;;;;;10515109;28;20223;-77
2023/04/12 15:35:36;;;;;;;16.60;11.17;;;10.70;99.90;;;;;;10517911;28;20225;-77
2023/04/12 15:41:00;;;;;;;15.47;11.73;;;10.60;99.90;;;;;;10517010;28;20566;-82
2023/04/12 15:46:21;;;;;;;13.27;10.20;;;10.50;99.90;;;;;;10477894;28;20186;-78
2023/04/12 15:51:42;;;;;;;16.80;11.93;;;10.50;99.90;;;;;;10491025;28;20208;-78
2023/04/12 15:57:08;;;;;;;14.33;10.57;;;10.40;99.90;;;;;;10504451;28;20208;-77
2023/04/12 16:02:29;;;;;;;21.90;13.17;;;10.40;99.90;;;;;;10518456;28;20219;-77
2023/04/12 16:08:00;;;;;;;35.53;18.70;;;10.40;99.90;;;;;;10518090;28;20202;-81
2023/04/12 16:13:21;;;;;;;29.70;18.73;;;10.40;99.90;;;;;;10522792;28;20263;-79
2023/04/12 16:18:46;;;;;;;25.67;14.93;;;10.40;99.90;;;;;;10524538;28;20508;-78
2023/04/12 16:24:07;;;;;;;27.87;17.27;;;10.40;99.90;;;;;;10518728;28;20465;-77
2023/04/12 16:29:30;;;;;;;38.27;24.20;;;10.20;99.90;;;;;;10519762;28;20451;-76
2023/04/12 16:34:51;;;;;;;29.57;15.20;;;10.10;99.90;;;;;;10519500;28;20243;-78
2023/04/12 16:40:13;;;;;;;33.37;21.43;;;10.00;99.90;;;;;;10517142;28;20197;-77
2023/04/12 16:45:33;;;;;;;26.93;18.80;;;9.90;99.90;;;;;;10504466;28;20338;-77
2023/04/12 16:50:55;;;;;;;29.83;15.77;;;9.80;99.90;;;;;;10519877;28;20197;-81
2023/04/12 16:56:18;;;;;;;33.00;18.43;;;9.80;99.90;;;;;;10517047;28;20228;-77
2023/04/12 17:01:40;;;;;;;26.20;16.43;;;9.70;99.90;;;;;;10522828;28;20196;-81
2023/04/12 17:07:01;;;;;;;14.60;9.50;;;9.80;99.90;;;;;;10524941;28;20504;-78
2023/04/12 17:12:22;;;;;;;11.23;7.27;;;9.80;99.90;;;;;;10525058;28;20223;-76
2023/04/12 17:17:58;;;;;;;9.50;6.30;;;9.70;99.90;;;;;;10529675;28;20235;-77
2023/04/12 17:23:19;;;;;;;18.53;10.93;;;9.60;99.90;;;;;;10549244;28;20193;-77
2023/04/12 17:28:40;;;;;;;19.87;12.93;;;9.50;99.90;;;;;;10556310;28;20191;-77
2023/04/12 17:34:02;;;;;;;23.17;13.93;;;9.40;99.90;;;;;;10539437;28;20220;-79
2023/04/12 17:39:24;;;;;;;24.27;15.73;;;9.30;99.90;;;;;;10542640;28;20191;-77
2023/04/12 17:44:45;;;;;;;29.03;16.33;;;9.30;99.90;;;;;;10529303;28;20206;-82
2023/04/12 17:50:11;;;;;;;30.20;17.47;;;9.20;99.90;;;;;;10523456;28;20381;-79
2023/04/12 17:55:32;;;;;;;33.30;18.40;;;9.10;99.90;;;;;;10523996;28;20573;-77
2023/04/12 18:00:53;;;;;;;40.03;24.97;;;9.00;99.90;;;;;;10528710;28;20193;-78
2023/04/12 18:06:14;;;;;;;44.60;25.47;;;8.90;99.90;;;;;;10544287;28;20468;-79
2023/04/12 18:11:37;;;;;;;45.00;27.07;;;8.80;99.90;;;;;;10541110;28;20222;-77
2023/04/12 18:16:58;;;;;;;38.80;23.93;;;8.80;99.90;;;;;;10539269;28;20451;-77
2023/04/12 18:22:20;;;;;;;27.77;19.27;;;8.60;99.90;;;;;;10522121;28;20187;-77
2023/04/12 18:27:45;;;;;;;40.30;24.57;;;8.60;99.90;;;;;;10506571;28;20419;-77
2023/04/12 18:33:06;;;;;;;50.50;32.07;;;8.50;99.90;;;;;;10554111;28;20208;-76
2023/04/12 18:38:31;;;;;;;54.40;34.43;;;8.40;99.90;;;;;;10555562;28;20188;-77
2023/04/12 18:43:52;;;;;;;62.33;36.97;;;8.40;99.90;;;;;;10520915;28;20515;-78
2023/04/12 18:49:13;;;;;;;52.07;30.83;;;8.30;99.90;;;;;;10522109;28;20388;-77
2023/04/12 18:54:34;;;;;;;40.87;24.80;;;8.20;99.90;;;;;;10519539;28;20304;-77
2023/04/12 18:59:55;;;;;;;36.07;22.43;;;8.10;99.90;;;;;;10521085;28;20205;-77
2023/04/12 19:05:17;;;;;;;38.67;24.13;;;8.10;99.90;;;;;;10512422;28;20210;-77
2023/04/12 19:10:38;;;;;;;35.47;21.27;;;7.90;99.90;;;;;;10492855;28;20191;-78
2023/04/12 19:16:00;;;;;;;36.87;22.17;;;7.90;99.90;;;;;;10521023;28;20266;-77
2023/04/12 19:21:22;;;;;;;34.30;20.80;;;7.80;99.90;;;;;;10518090;28;20209;-80
2023/04/12 19:26:48;;;;;;;41.67;22.13;;;7.80;99.90;;;;;;10520951;28;20205;-82
2023/04/12 19:32:12;;;;;;;32.27;20.13;;;7.70;99.90;;;;;;10520898;28;20243;-82
2023/04/12 19:37:33;;;;;;;28.33;17.50;;;7.70;99.90;;;;;;10518601;28;20258;-77
2023/04/12 19:42:54;;;;;;;19.67;13.30;;;7.70;99.90;;;;;;10522353;28;20195;-77
2023/04/12 19:48:15;;;;;;;23.57;15.00;;;7.60;99.90;;;;;;10520294;28;20212;-82
2023/04/12 19:53:37;;;;;;;21.20;15.30;;;7.60;99.90;;;;;;10522020;28;20247;-82
2023/04/12 19:58:59;;;;;;;28.23;15.17;;;7.60;99.90;;;;;;10521929;28;20212;-77
2023/04/12 20:04:20;;;;;;;26.37;16.77;;;7.50;99.90;;;;;;10520342;28;20209;-79
2023/04/12 20:09:42;;;;;;;22.37;14.77;;;7.60;99.90;;;;;;10519649;28;20247;-83
2023/04/12 20:15:07;;;;;;;21.83;13.10;;;7.60;99.90;;;;;;10535028;28;20249;-82
2023/04/12 20:20:28;;;;;;;18.03;12.60;;;7.50;99.90;;;;;;10523974;28;20190;-78
2023/04/12 20:25:50;;;;;;;18.93;11.77;;;7.50;99.90;;;;;;10521269;28;20207;-82
2023/04/12 20:31:11;;;;;;;16.00;11.67;;;7.40;99.90;;;;;;10519958;28;20219;-83
2023/04/12 20:36:32;;;;;;;20.23;13.43;;;7.40;99.90;;;;;;10524527;28;20523;-82
2023/04/12 20:41:56;;;;;;;18.23;13.30;;;7.30;99.90;;;;;;10526719;28;20387;-80
2023/04/12 20:47:18;;;;;;;16.97;11.87;;;7.30;99.90;;;;;;10527509;28;20251;-80
2023/04/12 20:52:39;;;;;;;16.30;11.20;;;7.30;99.90;;;;;;10524997;28;20212;-77
2023/04/12 20:58:02;;;;;;;16.80;11.10;;;7.30;99.90;;;;;;10526636;28;20196;-77
2023/04/12 21:03:23;;;;;;;17.93;12.07;;;7.30;99.90;;;;;;10526083;28;20383;-77
2023/04/12 21:08:46;;;;;;;17.03;12.07;;;7.20;99.90;;;;;;10524865;28;20194;-77
2023/04/12 21:14:08;;;;;;;20.23;12.47;;;7.20;99.90;;;;;;10537627;28;20244;-76
2023/04/12 21:19:29;;;;;;;17.83;12.20;;;7.20;99.90;;;;;;10524661;28;20188;-77
2023/04/12 21:24:50;;;;;;;20.93;13.27;;;7.10;99.90;;;;;;10521931;28;20333;-77
2023/04/12 21:30:12;;;;;;;23.13;15.63;;;7.10;99.90;;;;;;10524136;28;20232;-78
2023/04/12 21:35:33;;;;;;;24.83;16.20;;;7.10;99.90;;;;;;10524193;28;20219;-77
2023/04/12 21:40:57;;;;;;;22.90;14.53;;;7.10;99.90;;;;;;10523728;28;20497;-76
2023/04/12 21:46:18;;;;;;;25.53;13.53;;;7.00;99.90;;;;;;10508786;28;20250;-77
2023/04/12 21:51:39;;;;;;;23.37;13.20;;;7.00;99.90;;;;;;10523236;28;20202;-77
2023/04/12 21:57:02;;;;;;;20.57;13.00;;;7.00;99.90;;;;;;10522992;28;20218;-77
2023/04/12 22:02:24;;;;;;;22.57;14.70;;;6.90;99.90;;;;;;10507571;28;20201;-77
2023/04/12 22:07:45;;;;;;;20.33;13.33;;;7.00;99.90;;;;;;10523844;28;20186;-77
2023/04/12 22:13:08;;;;;;;20.87;13.40;;;7.00;99.90;;;;;;10526024;28;20232;-77
2023/04/12 22:18:30;;;;;;;21.90;13.77;;;7.00;99.90;;;;;;10521953;28;20206;-76
2023/04/12 22:23:54;;;;;;;23.27;13.30;;;7.00;99.90;;;;;;10522802;28;20231;-76
2023/04/12 22:29:34;;;;;;;25.17;14.70;;;7.00;99.90;;;;;;10521834;28;20201;-76
2023/04/12 22:34:59;;;;;;;24.27;13.80;;;7.00;99.90;;;;;;10480547;28;20263;-81
2023/04/12 22:40:27;;;;;;;20.90;12.80;;;7.00;99.90;;;;;;10480797;28;20268;-76
2023/04/12 22:45:48;;;;;;;24.10;14.87;;;6.90;99.90;;;;;;10513066;28;20243;-79
2023/04/12 22:51:10;;;;;;;25.57;14.93;;;6.90;99.90;;;;;;10521927;28;20190;-77
2023/04/12 22:56:31;;;;;;;31.50;17.03;;;6.90;99.90;;;;;;10519748;28;20977;-76
2023/04/12 23:01:53;;;;;;;32.17;16.77;;;6.80;99.90;;;;;;10519554;28;20430;-77
2023/04/12 23:07:14;;;;;;;30.23;17.03;;;6.70;99.90;;;;;;10520670;28;20570;-77
2023/04/12 23:12:36;;;;;;;27.80;16.57;;;6.80;99.90;;;;;;10519527;28;20265;-76
2023/04/12 23:18:00;;;;;;;28.60;16.60;;;6.70;99.90;;;;;;10530970;28;20259;-76
2023/04/12 23:23:23;;;;;;;27.50;16.90;;;6.70;99.90;;;;;;10519463;28;20217;-77
2023/04/12 23:28:44;;;;;;;24.20;14.23;;;6.80;99.90;;;;;;10519086;28;20279;-76
2023/04/12 23:34:06;;;;;;;26.07;14.83;;;6.70;99.90;;;;;;10520178;28;20259;-78
2023/04/12 23:39:27;;;;;;;21.03;14.13;;;;;;;;;;10518876;28;20452;-78
2023/04/12 23:44:48;;;;;;;22.13;14.90;;;6.60;99.90;;;;;;10516131;28;20208;-76
2023/04/12 23:50:10;;;;;;;22.03;13.37;;;6.90;99.90;;;;;;10524325;28;20211;-77
2023/04/12 23:55:31;;;;;;;24.67;13.37;;;6.80;99.90;;;;;;10531679;28;20525;-77
